createdAt,value
2022-12-04T00:00:36.356Z,88.53
2022-12-04T00:03:04.128Z,88.80
2022-12-04T00:05:31.800Z,88.65
2022-12-04T00:08:00.897Z,88.90
2022-12-04T00:10:28.664Z,88.62
2022-12-04T00:12:56.333Z,88.54
2022-12-04T00:15:25.988Z,89.15
2022-12-04T00:17:54.624Z,88.73
2022-12-04T00:20:23.018Z,88.92
2022-12-04T00:22:50.663Z,88.81
2022-12-04T00:25:19.919Z,88.51
2022-12-04T00:27:47.557Z,88.80
2022-12-04T00:30:15.574Z,89.11
2022-12-04T00:32:43.248Z,88.70
2022-12-04T00:35:11.007Z,88.61
2022-12-04T00:37:38.757Z,88.82
2022-12-04T00:40:08.027Z,88.79
2022-12-04T00:42:37.027Z,88.59
2022-12-04T00:45:05.325Z,89.08
2022-12-04T00:47:33.014Z,88.88
2022-12-04T00:50:00.621Z,88.96
2022-12-04T00:52:28.626Z,88.96
2022-12-04T00:54:56.275Z,88.84
2022-12-04T00:57:23.932Z,89.08
2022-12-04T00:59:53.159Z,88.91
2022-12-04T01:02:21.149Z,88.85
2022-12-04T01:04:48.780Z,88.78
2022-12-04T01:07:16.577Z,88.67
2022-12-04T01:09:44.203Z,88.77
2022-12-04T01:12:16.170Z,88.72
2022-12-04T01:14:46.762Z,88.83
2022-12-04T01:17:15.797Z,89.21
2022-12-04T01:19:43.468Z,88.64
2022-12-04T01:22:11.283Z,88.82
2022-12-04T01:24:38.940Z,88.99
2022-12-04T01:27:06.611Z,88.68
2022-12-04T01:29:34.708Z,88.77
2022-12-04T01:32:02.447Z,89.03
2022-12-04T01:34:31.531Z,88.89
2022-12-04T01:36:59.187Z,89.04
2022-12-04T01:39:26.819Z,89.11
2022-12-04T01:41:54.494Z,89.52
2022-12-04T01:44:23.933Z,89.50
2022-12-04T01:46:52.685Z,89.24
2022-12-04T01:49:24.860Z,89.40
2022-12-04T01:51:57.596Z,89.09
2022-12-04T01:54:31.027Z,88.84
2022-12-04T01:57:02.443Z,89.01
2022-12-04T01:59:34.299Z,88.68
2022-12-04T02:02:05.759Z,89.01
2022-12-04T02:04:35.386Z,89.30
2022-12-04T02:07:05.091Z,89.34
2022-12-04T02:09:34.368Z,89.30
2022-12-04T02:12:09.267Z,89.18
2022-12-04T02:14:46.096Z,89.06
2022-12-04T02:17:23.395Z,89.18
2022-12-04T02:20:06.708Z,89.18
2022-12-04T02:22:54.856Z,88.67
2022-12-04T02:25:30.415Z,89.07
2022-12-04T02:28:06.078Z,89.21
2022-12-04T02:30:37.970Z,89.04
2022-12-04T02:33:12.997Z,89.44
2022-12-04T02:35:43.926Z,89.20
2022-12-04T02:38:17.391Z,89.46
2022-12-04T02:40:52.599Z,88.77
2022-12-04T02:43:25.636Z,89.36
2022-12-04T02:46:00.075Z,88.79
2022-12-04T02:48:32.200Z,89.44
2022-12-04T02:51:02.980Z,89.02
2022-12-04T02:53:33.460Z,89.12
2022-12-04T02:56:04.469Z,88.93
2022-12-04T02:58:38.308Z,89.11
2022-12-04T03:01:19.458Z,89.13
2022-12-04T03:03:53.489Z,88.86
2022-12-04T03:06:23.021Z,88.90
2022-12-04T03:08:54.531Z,89.48
2022-12-04T03:11:22.569Z,89.19
2022-12-04T03:13:56.238Z,89.18
2022-12-04T03:16:27.209Z,89.31
2022-12-04T03:18:59.096Z,89.04
2022-12-04T03:21:32.493Z,89.01
2022-12-04T03:24:06.176Z,88.90
2022-12-04T03:26:38.384Z,88.94
2022-12-04T03:29:13.105Z,89.64
2022-12-04T03:31:45.194Z,89.75
2022-12-04T03:34:16.028Z,89.52
2022-12-04T03:36:50.132Z,89.37
2022-12-04T03:39:22.236Z,89.22
2022-12-04T03:41:58.199Z,89.12
2022-12-04T03:44:33.752Z,89.02
2022-12-04T03:47:05.774Z,89.30
2022-12-04T03:49:43.318Z,89.06
2022-12-04T03:52:18.061Z,89.51
2022-12-04T03:54:50.840Z,89.79
2022-12-04T03:57:23.860Z,89.27
2022-12-04T03:59:59.984Z,89.38
2022-12-04T04:02:34.059Z,89.45
2022-12-04T04:05:03.729Z,89.33
2022-12-04T04:07:36.058Z,89.22
2022-12-04T04:10:08.333Z,89.49
2022-12-04T04:12:40.938Z,89.36
2022-12-04T04:15:32.239Z,89.54
2022-12-04T04:18:19.758Z,89.54
2022-12-04T04:21:08.547Z,89.63
2022-12-04T04:23:58.439Z,88.97
2022-12-04T04:26:30.130Z,89.17
2022-12-04T04:28:57.777Z,88.79
2022-12-04T04:31:34.945Z,89.21
2022-12-04T04:34:12.325Z,89.38
2022-12-04T04:36:48.676Z,89.44
2022-12-04T04:39:25.498Z,89.06
2022-12-04T04:41:58.859Z,89.44
2022-12-04T04:44:32.191Z,89.41
2022-12-04T04:47:04.739Z,89.59
2022-12-04T04:49:35.431Z,89.03
2022-12-04T04:52:03.861Z,89.33
2022-12-04T04:54:32.643Z,89.44
2022-12-04T04:57:00.304Z,89.20
2022-12-04T04:59:27.929Z,89.12
2022-12-04T05:01:55.754Z,89.34
2022-12-04T05:04:24.765Z,89.25
2022-12-04T05:06:52.413Z,89.64
2022-12-04T05:09:20.033Z,89.03
2022-12-04T05:11:47.729Z,88.97
2022-12-04T05:14:15.343Z,89.11
2022-12-04T05:16:42.958Z,89.05
2022-12-04T05:19:27.716Z,89.17
2022-12-04T05:21:57.501Z,89.63
2022-12-04T05:24:25.144Z,89.25
2022-12-04T05:26:52.816Z,89.02
2022-12-04T05:29:20.604Z,89.55
2022-12-04T05:31:48.301Z,89.33
2022-12-04T05:34:15.968Z,89.39
2022-12-04T05:36:43.652Z,89.69
2022-12-04T05:39:12.631Z,89.34
2022-12-04T05:41:40.308Z,89.52
2022-12-04T05:44:07.963Z,89.22
2022-12-04T05:46:35.642Z,89.35
2022-12-04T05:49:03.309Z,89.17
2022-12-04T05:51:30.946Z,88.73
2022-12-04T05:53:58.616Z,89.54
2022-12-04T05:56:27.628Z,89.49
2022-12-04T05:58:55.270Z,89.73
2022-12-04T06:01:25.053Z,89.36
2022-12-04T06:03:53.155Z,89.49
2022-12-04T06:06:22.957Z,89.57
2022-12-04T06:08:51.696Z,89.79
2022-12-04T06:11:22.181Z,89.47
2022-12-04T06:13:51.557Z,89.37
2022-12-04T06:16:21.071Z,88.99
2022-12-04T06:18:51.596Z,89.31
2022-12-04T06:21:19.716Z,89.80
2022-12-04T06:23:47.811Z,89.60
2022-12-04T06:26:16.094Z,89.93
2022-12-04T06:28:43.939Z,89.52
2022-12-04T06:31:15.399Z,89.66
2022-12-04T06:33:43.819Z,89.30
2022-12-04T06:36:14.543Z,89.58
2022-12-04T06:38:42.778Z,89.32
2022-12-04T06:41:12.821Z,89.80
2022-12-04T06:43:41.467Z,89.09
2022-12-04T06:46:11.345Z,89.47
2022-12-04T06:48:41.094Z,89.83
2022-12-04T06:51:10.449Z,89.99
2022-12-04T06:53:38.208Z,89.85
2022-12-04T06:56:08.095Z,89.59
2022-12-04T06:58:36.095Z,89.78
2022-12-04T07:01:08.226Z,89.44
2022-12-04T07:03:36.431Z,89.26
2022-12-04T07:06:14.302Z,89.78
2022-12-04T07:08:42.384Z,89.63
2022-12-04T07:11:10.439Z,89.56
2022-12-04T07:13:38.131Z,89.56
2022-12-04T07:16:08.491Z,89.31
2022-12-04T07:18:36.925Z,89.76
2022-12-04T07:21:07.584Z,89.33
2022-12-04T07:23:37.170Z,89.92
2022-12-04T07:26:06.513Z,89.76
2022-12-04T07:28:34.447Z,89.97
2022-12-04T07:31:05.002Z,89.90
2022-12-04T07:33:32.808Z,89.92
2022-12-04T07:36:01.807Z,89.55
2022-12-04T07:38:30.754Z,89.65
2022-12-04T07:41:00.804Z,89.71
2022-12-04T07:43:29.959Z,89.60
2022-12-04T07:45:58.153Z,89.70
2022-12-04T07:48:31.745Z,89.77
2022-12-04T07:51:05.445Z,89.33
2022-12-04T07:53:34.241Z,89.89
2022-12-04T07:56:03.437Z,89.27
2022-12-04T07:58:31.085Z,89.24
2022-12-04T08:01:07.016Z,89.36
2022-12-04T08:03:34.754Z,89.71
2022-12-04T08:06:02.644Z,89.61
2022-12-04T08:08:30.592Z,89.46
2022-12-04T08:10:58.317Z,89.63
2022-12-04T08:13:27.365Z,89.81
2022-12-04T08:15:54.959Z,89.85
2022-12-04T08:18:22.621Z,89.32
2022-12-04T08:20:50.261Z,89.68
2022-12-04T08:23:17.934Z,89.80
2022-12-04T08:25:45.599Z,89.60
2022-12-04T08:28:13.242Z,89.66
2022-12-04T08:30:42.261Z,89.58
2022-12-04T08:33:09.926Z,89.38
2022-12-04T08:35:37.546Z,89.72
2022-12-04T08:38:05.177Z,89.51
2022-12-04T08:40:33.246Z,89.63
2022-12-04T08:43:01.042Z,89.41
2022-12-04T08:45:28.683Z,89.75
2022-12-04T08:47:57.724Z,89.83
2022-12-04T08:50:25.337Z,89.09
2022-12-04T08:52:52.962Z,89.07
2022-12-04T08:55:20.601Z,89.15
2022-12-04T08:57:48.276Z,88.72
2022-12-04T09:00:16.959Z,89.30
2022-12-04T09:02:44.695Z,89.06
2022-12-04T09:05:13.671Z,89.33
2022-12-04T09:07:41.341Z,89.56
2022-12-04T09:10:10.334Z,89.47
2022-12-04T09:12:38.018Z,89.63
2022-12-04T09:15:06.632Z,89.29
2022-12-04T09:17:35.134Z,88.55
2022-12-04T09:20:03.419Z,89.44
2022-12-04T09:22:57.820Z,89.57
2022-12-04T09:25:22.019Z,89.55
2022-12-04T09:27:49.669Z,89.42
2022-12-04T09:30:17.332Z,89.71
2022-12-04T09:32:45.004Z,90.06
2022-12-04T09:35:12.629Z,90.03
2022-12-04T09:37:41.606Z,89.98
2022-12-04T09:40:21.898Z,90.40
2022-12-04T09:42:57.806Z,89.96
2022-12-04T09:45:27.284Z,90.16
2022-12-04T09:47:59.253Z,89.76
2022-12-04T09:50:32.816Z,90.71
2022-12-04T09:53:04.617Z,90.32
2022-12-04T09:55:37.316Z,90.07
2022-12-04T09:58:08.153Z,90.52
2022-12-04T10:00:39.910Z,90.40
2022-12-04T10:03:13.359Z,90.42
2022-12-04T10:05:49.569Z,90.10
2022-12-04T10:08:22.546Z,89.97
2022-12-04T10:11:01.324Z,89.78
2022-12-04T10:13:46.047Z,89.80
2022-12-04T10:16:20.709Z,90.30
2022-12-04T10:18:55.526Z,90.31
2022-12-04T10:21:35.192Z,89.88
2022-12-04T10:24:23.747Z,89.89
2022-12-04T10:26:52.543Z,89.80
2022-12-04T10:29:25.344Z,89.64
2022-12-04T10:31:57.207Z,89.74
2022-12-04T10:34:27.137Z,89.27
2022-12-04T10:36:56.737Z,88.98
2022-12-04T10:39:30.893Z,88.69
2022-12-04T10:42:02.870Z,89.34
2022-12-04T10:44:30.839Z,88.75
2022-12-04T10:47:06.090Z,88.92
2022-12-04T10:49:35.020Z,87.42
2022-12-04T10:52:02.997Z,88.24
2022-12-04T10:54:35.188Z,88.72
2022-12-04T10:57:05.037Z,88.51
2022-12-04T10:59:33.119Z,88.95
2022-12-04T11:02:07.011Z,88.88
2022-12-04T11:04:36.647Z,88.88
2022-12-04T11:07:06.770Z,88.85
2022-12-04T11:09:36.735Z,89.11
2022-12-04T11:12:10.467Z,88.56
2022-12-04T11:14:40.731Z,88.38
2022-12-04T11:17:18.411Z,88.39
2022-12-04T11:19:46.561Z,88.48
2022-12-04T11:22:17.319Z,88.91
2022-12-04T11:24:52.119Z,88.51
2022-12-04T11:27:24.651Z,88.59
2022-12-04T11:29:53.187Z,89.11
2022-12-04T11:32:24.166Z,88.93
2022-12-04T11:34:55.102Z,88.65
2022-12-04T11:37:26.980Z,88.50
2022-12-04T11:39:56.910Z,88.40
2022-12-04T11:42:26.335Z,88.38
2022-12-04T11:44:57.346Z,88.71
2022-12-04T11:47:27.046Z,88.57
2022-12-04T11:50:03.307Z,88.46
2022-12-04T11:52:43.072Z,88.72
2022-12-04T11:55:17.324Z,88.00
2022-12-04T11:57:50.893Z,88.27
2022-12-04T12:00:20.237Z,88.50
2022-12-04T12:03:05.939Z,88.27
2022-12-04T12:05:50.586Z,88.82
2022-12-04T12:08:30.155Z,88.46
2022-12-04T12:11:06.933Z,88.17
2022-12-04T12:13:46.332Z,87.90
2022-12-04T12:16:25.682Z,88.25
2022-12-04T12:19:08.465Z,88.02
2022-12-04T12:21:44.389Z,88.03
2022-12-04T12:24:25.817Z,88.53
2022-12-04T12:27:07.744Z,87.83
2022-12-04T12:29:47.991Z,87.78
2022-12-04T12:32:32.422Z,88.28
2022-12-04T12:35:01.440Z,87.82
2022-12-04T12:37:38.971Z,88.25
2022-12-04T12:40:15.734Z,87.82
2022-12-04T12:42:58.007Z,87.96
2022-12-04T12:45:33.328Z,88.12
2022-12-04T12:48:09.576Z,88.26
2022-12-04T12:50:44.584Z,87.96
2022-12-04T12:53:18.884Z,88.08
2022-12-04T12:55:51.424Z,88.10
2022-12-04T12:58:29.135Z,87.76
2022-12-04T13:01:01.177Z,88.22
2022-12-04T13:03:38.443Z,88.26
2022-12-04T13:06:13.493Z,88.44
2022-12-04T13:08:49.470Z,88.39
2022-12-04T13:11:21.072Z,88.09
2022-12-04T13:13:53.470Z,88.09
2022-12-04T13:16:25.442Z,88.14
2022-12-04T13:19:12.984Z,87.67
2022-12-04T13:21:45.160Z,88.29
2022-12-04T13:24:46.958Z,87.85
2022-12-04T13:27:23.828Z,87.90
2022-12-04T13:30:04.852Z,87.60
2022-12-04T13:33:05.540Z,87.90
2022-12-04T13:35:53.071Z,87.79
2022-12-04T13:38:29.451Z,87.77
2022-12-04T13:40:58.928Z,88.16
2022-12-04T13:43:33.187Z,88.08
2022-12-04T13:46:05.951Z,88.31
2022-12-04T13:48:40.592Z,88.24
2022-12-04T13:51:24.052Z,87.94
2022-12-04T13:54:02.335Z,88.19
2022-12-04T13:56:31.858Z,88.22
2022-12-04T13:59:02.391Z,87.99
2022-12-04T14:01:38.763Z,88.50
2022-12-04T14:04:07.372Z,88.58
2022-12-04T14:06:38.547Z,88.66
2022-12-04T14:09:09.724Z,88.30
2022-12-04T14:11:46.640Z,87.99
2022-12-04T14:14:26.712Z,88.08
2022-12-04T14:16:57.207Z,88.28
2022-12-04T14:19:32.395Z,88.74
2022-12-04T14:21:59.935Z,87.12
2022-12-04T14:24:35.033Z,88.28
2022-12-04T14:27:11.709Z,88.28
2022-12-04T14:29:48.564Z,87.91
2022-12-04T14:32:22.821Z,87.74
2022-12-04T14:34:51.175Z,88.14
2022-12-04T14:37:25.495Z,85.72
2022-12-04T14:39:54.454Z,87.62
2022-12-04T14:42:25.392Z,88.10
2022-12-04T14:44:56.758Z,88.44
2022-12-04T14:47:40.153Z,88.03
2022-12-04T14:50:31.799Z,88.10
2022-12-04T14:53:07.303Z,88.28
2022-12-04T14:55:42.672Z,88.46
2022-12-04T14:58:32.462Z,88.65
2022-12-04T15:01:02.226Z,88.39
2022-12-04T15:03:36.296Z,88.87
2022-12-04T15:06:06.496Z,88.65
2022-12-04T15:08:34.511Z,88.49
2022-12-04T15:11:16.129Z,88.77
2022-12-04T15:13:43.779Z,88.79
2022-12-04T15:16:16.630Z,88.76
2022-12-04T15:18:55.969Z,88.80
2022-12-04T15:21:25.666Z,88.99
2022-12-04T15:23:53.364Z,88.70
2022-12-04T15:26:25.178Z,88.91
2022-12-04T15:28:57.304Z,89.18
2022-12-04T15:31:28.307Z,89.17
2022-12-04T15:34:01.835Z,89.50
2022-12-04T15:36:44.645Z,88.83
2022-12-04T15:39:16.769Z,88.82
2022-12-04T15:41:44.492Z,88.88
2022-12-04T15:44:29.076Z,88.05
2022-12-04T15:46:59.201Z,88.46
2022-12-04T15:49:29.880Z,88.93
2022-12-04T15:52:06.696Z,88.67
2022-12-04T15:54:36.172Z,88.87
2022-12-04T15:57:06.670Z,88.85
2022-12-04T15:59:36.419Z,89.03
2022-12-04T16:02:08.958Z,88.98
2022-12-04T16:04:43.988Z,88.95
2022-12-04T16:07:21.632Z,88.98
2022-12-04T16:10:01.091Z,88.98
2022-12-04T16:12:32.859Z,88.96
2022-12-04T16:15:00.502Z,88.85
2022-12-04T16:17:31.576Z,89.30
2022-12-04T16:20:01.788Z,88.79
2022-12-04T16:22:31.368Z,88.96
2022-12-04T16:24:59.313Z,89.33
2022-12-04T16:27:27.189Z,89.00
2022-12-04T16:29:54.993Z,89.12
2022-12-04T16:32:27.186Z,88.60
2022-12-04T16:34:55.162Z,88.96
2022-12-04T16:37:24.455Z,88.00
2022-12-04T16:39:52.112Z,88.84
2022-12-04T16:42:24.217Z,88.76
2022-12-04T16:44:52.497Z,88.98
2022-12-04T16:47:20.263Z,87.97
2022-12-04T16:49:50.721Z,88.62
2022-12-04T16:52:19.122Z,88.94
2022-12-04T16:54:48.646Z,88.86
2022-12-04T16:57:16.327Z,89.00
2022-12-04T16:59:43.976Z,89.01
2022-12-04T17:02:17.062Z,89.30
2022-12-04T17:04:44.761Z,88.93
2022-12-04T17:07:12.461Z,88.92
2022-12-04T17:09:40.152Z,89.03
2022-12-04T17:12:09.370Z,88.97
2022-12-04T17:14:37.006Z,88.97
2022-12-04T17:17:04.690Z,89.32
2022-12-04T17:19:32.422Z,89.35
2022-12-04T17:22:01.238Z,88.91
2022-12-04T17:24:28.957Z,89.09
2022-12-04T17:26:58.095Z,89.14
2022-12-04T17:29:27.168Z,89.60
2022-12-04T17:31:54.912Z,89.10
2022-12-04T17:34:22.567Z,88.88
2022-12-04T17:36:50.233Z,89.16
2022-12-04T17:39:17.871Z,88.98
2022-12-04T17:41:45.507Z,89.01
2022-12-04T17:44:13.200Z,89.10
2022-12-04T17:46:42.514Z,88.95
2022-12-04T17:49:10.261Z,89.17
2022-12-04T17:51:38.184Z,88.81
2022-12-04T17:54:06.611Z,88.49
2022-12-04T17:56:34.799Z,88.75
2022-12-04T17:59:02.426Z,88.99
2022-12-04T18:01:30.868Z,89.21
2022-12-04T18:04:01.814Z,89.19
2022-12-04T18:06:31.749Z,89.27
2022-12-04T18:09:00.236Z,89.02
2022-12-04T18:11:31.104Z,89.18
2022-12-04T18:14:00.936Z,89.33
2022-12-04T18:16:30.733Z,89.28
2022-12-04T18:19:01.505Z,88.93
2022-12-04T18:21:30.245Z,89.62
2022-12-04T18:23:59.091Z,89.69
2022-12-04T18:26:28.560Z,89.26
2022-12-04T18:28:56.714Z,89.52
2022-12-04T18:31:24.848Z,89.33
2022-12-04T18:33:52.552Z,89.31
2022-12-04T18:36:23.658Z,89.27
2022-12-04T18:38:55.481Z,89.64
2022-12-04T18:41:23.370Z,89.67
2022-12-04T18:43:51.913Z,89.72
2022-12-04T18:46:19.947Z,89.00
2022-12-04T18:48:48.890Z,89.34
2022-12-04T18:51:18.974Z,89.49
2022-12-04T18:53:48.337Z,89.82
2022-12-04T18:56:16.694Z,90.03
2022-12-04T18:58:46.382Z,90.08
2022-12-04T19:01:18.318Z,89.84
2022-12-04T19:03:46.991Z,90.00
2022-12-04T19:06:14.935Z,90.31
2022-12-04T19:08:43.631Z,90.46
2022-12-04T19:11:15.208Z,90.10
2022-12-04T19:13:43.748Z,90.06
2022-12-04T19:16:12.372Z,90.35
2022-12-04T19:18:40.195Z,90.47
2022-12-04T19:21:08.783Z,90.15
2022-12-04T19:23:36.299Z,90.39
2022-12-04T19:26:04.566Z,90.25
2022-12-04T19:28:33.704Z,90.52
2022-12-04T19:31:01.427Z,90.82
2022-12-04T19:33:29.367Z,90.85
2022-12-04T19:35:58.646Z,90.87
2022-12-04T19:38:26.936Z,90.74
2022-12-04T19:41:04.631Z,90.63
2022-12-04T19:43:33.627Z,90.74
2022-12-04T19:46:01.382Z,90.93
2022-12-04T19:48:29.312Z,91.17
2022-12-04T19:50:57.148Z,91.06
2022-12-04T19:53:24.803Z,90.80
2022-12-04T19:55:52.542Z,91.26
2022-12-04T19:58:20.275Z,91.22
2022-12-04T20:00:49.681Z,91.20
2022-12-04T20:03:17.396Z,91.36
2022-12-04T20:05:45.071Z,90.73
2022-12-04T20:10:39.393Z,91.23
2022-12-04T20:13:07.037Z,91.41
2022-12-04T20:15:36.384Z,91.34
2022-12-04T20:18:06.023Z,91.44
2022-12-04T20:20:33.826Z,91.32
2022-12-04T20:23:01.532Z,91.17
2022-12-04T20:25:29.267Z,91.34
2022-12-04T20:27:56.923Z,91.11
2022-12-04T20:30:24.667Z,91.48
2022-12-04T20:32:52.351Z,91.18
2022-12-04T20:35:21.424Z,91.25
2022-12-04T20:37:49.163Z,91.28
2022-12-04T20:40:18.308Z,91.14
2022-12-04T20:42:46.025Z,91.08
2022-12-04T20:45:13.709Z,91.18
2022-12-04T20:47:41.548Z,91.65
2022-12-04T20:50:10.377Z,90.88
2022-12-04T20:52:39.627Z,91.44
2022-12-04T20:55:08.895Z,91.04
2022-12-04T20:57:37.393Z,91.45
2022-12-04T21:02:47.318Z,91.17
2022-12-04T21:05:15.006Z,91.61
2022-12-04T21:07:44.076Z,91.15
2022-12-04T21:10:12.232Z,91.58
2022-12-04T21:12:57.492Z,91.47
2022-12-04T21:15:42.807Z,91.60
2022-12-04T21:18:10.479Z,91.13
2022-12-04T21:20:38.107Z,91.11
2022-12-04T21:23:07.123Z,91.82
2022-12-04T21:25:34.812Z,91.08
2022-12-04T21:28:02.486Z,91.50
2022-12-04T21:30:30.184Z,91.17
2022-12-04T21:32:57.872Z,91.80
2022-12-04T21:35:25.536Z,91.55
2022-12-04T21:37:53.192Z,91.58
2022-12-04T21:40:22.176Z,91.40
2022-12-04T21:42:49.852Z,91.20
2022-12-04T21:45:17.676Z,90.87
2022-12-04T21:47:45.312Z,91.83
2022-12-04T21:50:12.947Z,91.25
2022-12-04T21:52:40.681Z,91.07
2022-12-04T21:55:08.796Z,91.51
2022-12-04T21:57:37.854Z,90.99
2022-12-04T22:00:06.699Z,91.05
2022-12-04T22:02:36.282Z,91.16
2022-12-04T22:05:04.285Z,91.02
2022-12-04T22:07:31.987Z,91.26
2022-12-04T22:10:00.626Z,91.69
2022-12-04T22:12:48.919Z,91.71
2022-12-04T22:15:19.859Z,91.88
2022-12-04T22:17:47.536Z,91.10
2022-12-04T22:20:16.174Z,91.46
2022-12-04T22:22:43.880Z,91.23
2022-12-04T22:25:11.686Z,91.27
2022-12-04T22:27:39.359Z,91.28
2022-12-04T22:30:08.582Z,91.71
2022-12-04T22:32:37.672Z,91.65
2022-12-04T22:35:05.824Z,91.55
2022-12-04T22:37:33.642Z,91.42
2022-12-04T22:40:01.357Z,91.24
2022-12-04T22:42:29.376Z,91.78
2022-12-04T22:44:57.031Z,92.08
2022-12-04T22:47:24.791Z,91.66
2022-12-04T22:49:53.872Z,91.74
2022-12-04T22:52:21.545Z,91.75
2022-12-04T22:54:51.068Z,91.90
2022-12-04T22:57:19.137Z,91.23
2022-12-04T22:59:47.064Z,91.44
2022-12-04T23:02:14.721Z,91.57
2022-12-04T23:04:43.661Z,92.02
2022-12-04T23:07:12.965Z,91.27
2022-12-04T23:09:40.706Z,91.48
2022-12-04T23:12:08.452Z,92.01
2022-12-04T23:14:36.876Z,91.32
2022-12-04T23:17:04.474Z,90.95
2022-12-04T23:19:32.523Z,91.16
2022-12-04T23:22:00.165Z,91.67
2022-12-04T23:24:29.158Z,90.90
2022-12-04T23:26:56.825Z,91.65
2022-12-04T23:32:12.177Z,91.75
2022-12-04T23:34:39.874Z,91.50
2022-12-04T23:37:07.513Z,91.78
2022-12-04T23:39:36.557Z,90.88
2022-12-04T23:42:04.473Z,91.16
2022-12-04T23:44:32.202Z,91.64
2022-12-04T23:46:59.928Z,91.61
2022-12-04T23:49:27.708Z,91.41
2022-12-04T23:51:55.341Z,91.50
2022-12-04T23:54:22.994Z,91.55
2022-12-04T23:56:51.999Z,91.52
2022-12-04T23:59:21.263Z,91.46
